Time;durP1;ratioP1;P1;durP2;ratioP2;P2;SDS_P1;SDS_P2;PMS_P1;PMS_P2;Temp;Humidity;BMP_temperature;BMP_pressure;BME280_temperature;BME280_humidity;BME280_pressure;Samples;Min_cycle;Max_cycle;Signal;HPM_P1;HPM_P2
2022/02/26 00:04:09;;;;;;;18.13;7.07;;;;;;;;;;10237677;29;20034;-72
2022/02/26 00:09:09;;;;;;;15.30;8.13;;;;;;;;;;10237322;28;20089;-74
2022/02/26 00:14:10;;;;;;;11.02;7.35;;;;;;;;;;10236739;28;20035;-73
2022/02/26 00:19:11;;;;;;;17.10;7.17;;;;;;;;;;10237635;29;20415;-73
2022/02/26 00:24:11;;;;;;;13.80;6.60;;;;;;;;;;10237544;28;20045;-73
2022/02/26 00:29:12;;;;;;;16.73;6.80;;;;;;;;;;10238669;29;20088;-72
2022/02/26 00:34:13;;;;;;;15.40;7.53;;;;;;;;;;10238871;29;20041;-73
2022/02/26 00:39:13;;;;;;;14.63;6.93;;;;;;;;;;10236629;28;20027;-73
2022/02/26 00:44:13;;;;;;;18.33;8.40;;;;;;;;;;10236383;29;20098;-73
2022/02/26 00:54:33;;;;;;;24.45;12.30;;;;;;;;;;10237960;29;20319;-75
2022/02/26 00:59:33;;;;;;;24.40;11.63;;;;;;;;;;10236245;28;20075;-72
2022/02/26 01:04:34;;;;;;;33.70;13.73;;;;;;;;;;10242155;29;20278;-72
2022/02/26 01:09:35;;;;;;;32.75;15.57;;;;;;;;;;10242652;28;20439;-73
2022/02/26 01:14:36;;;;;;;34.30;13.30;;;;;;;;;;10243930;28;20032;-73
2022/02/26 01:19:36;;;;;;;22.65;12.35;;;;;;;;;;10243465;28;20114;-72
2022/02/26 01:24:37;;;;;;;28.05;12.65;;;;;;;;;;10242720;29;20469;-73
2022/02/26 01:29:37;;;;;;;25.73;12.70;;;;;;;;;;10242631;29;20114;-76
2022/02/26 01:34:37;;;;;;;23.87;13.90;;;;;;;;;;10243694;28;20041;-72
2022/02/26 01:39:38;;;;;;;33.97;12.93;;;;;;;;;;10241889;28;20161;-72
2022/02/26 01:44:44;;;;;;;27.35;13.65;;;;;;;;;;10242051;28;20031;-73
2022/02/26 01:49:44;;;;;;;29.30;12.50;;;;;;;;;;10241531;28;20434;-73
2022/02/26 01:54:45;;;;;;;23.73;12.88;;;;;;;;;;10261597;28;20027;-71
2022/02/26 01:59:46;;;;;;;24.33;12.68;;;;;;;;;;10241593;28;20031;-76
2022/02/26 02:04:46;;;;;;;24.63;11.10;;;;;;;;;;10241345;28;20027;-72
2022/02/26 02:09:47;;;;;;;27.45;13.27;;;;;;;;;;10240921;28;20434;-72
2022/02/26 02:14:47;;;;;;;17.80;10.40;;;;;;;;;;10240671;28;20031;-71
2022/02/26 02:19:48;;;;;;;14.97;11.10;;;;;;;;;;10240826;28;20118;-75
2022/02/26 02:24:48;;;;;;;20.30;9.65;;;;;;;;;;10241184;28;20275;-71
2022/02/26 02:29:48;;;;;;;30.73;12.33;;;;;;;;;;10256895;28;20035;-73
2022/02/26 02:34:49;;;;;;;13.50;7.97;;;;;;;;;;10240525;28;20277;-74
2022/02/26 02:39:49;;;;;;;15.63;8.95;;;;;;;;;;10240311;29;20037;-70
2022/02/26 02:44:49;;;;;;;12.95;7.18;;;;;;;;;;10240285;28;20030;-76
2022/02/26 02:49:49;;;;;;;22.13;9.07;;;;;;;;;;10241508;28;20443;-71
2022/02/26 02:54:50;;;;;;;17.30;9.70;;;;;;;;;;10273311;28;20041;-73
2022/02/26 02:59:50;;;;;;;19.13;9.57;;;;;;;;;;10279867;28;20084;-73
2022/02/26 03:04:50;;;;;;;39.83;12.20;;;;;;;;;;10279314;28;20106;-73
2022/02/26 03:09:51;;;;;;;25.45;11.40;;;;;;;;;;10278630;28;20142;-72
2022/02/26 03:14:51;;;;;;;28.10;12.73;;;;;;;;;;10278931;28;20038;-72
2022/02/26 03:19:51;;;;;;;21.70;11.33;;;;;;;;;;10278831;28;20069;-72
2022/02/26 03:24:52;;;;;;;15.75;10.82;;;;;;;;;;10278124;28;20031;-73
2022/02/26 03:29:52;;;;;;;21.57;12.97;;;;;;;;;;10263050;28;20027;-75
2022/02/26 03:34:52;;;;;;;19.30;12.30;;;;;;;;;;10278639;28;20027;-73
2022/02/26 03:39:52;;;;;;;21.47;11.40;;;;;;;;;;10278351;28;20045;-71
2022/02/26 03:44:53;;;;;;;29.50;14.57;;;;;;;;;;10278996;28;20030;-72
2022/02/26 03:49:53;;;;;;;32.97;14.55;;;;;;;;;;10278374;28;20022;-72
2022/02/26 03:54:55;;;;;;;36.53;17.65;;;;;;;;;;10483257;23;20056;-72
2022/02/26 03:59:55;;;;;;;58.15;22.90;;;;;;;;;;10488048;28;20147;-70
2022/02/26 04:04:56;;;;;;;43.88;20.02;;;;;;;;;;10487405;28;20054;-72
2022/02/26 04:09:56;;;;;;;45.08;22.50;;;;;;;;;;10486956;28;20020;-73
2022/02/26 04:14:57;;;;;;;39.58;19.83;;;;;;;;;;10489159;28;20071;-72
2022/02/26 04:19:57;;;;;;;42.33;18.83;;;;;;;;;;10479355;28;20381;-72
2022/02/26 04:24:57;;;;;;;37.90;17.77;;;;;;;;;;10428782;28;20233;-73
2022/02/26 04:29:58;;;;;;;43.45;19.88;;;;;;;;;;10445003;28;20809;-74
2022/02/26 04:34:59;;;;;;;30.55;15.68;;;;;;;;;;10448469;28;20515;-75
2022/02/26 04:39:59;;;;;;;23.73;14.40;;;;;;;;;;10453640;28;20492;-72
2022/02/26 04:44:59;;;;;;;30.05;13.25;;;;;;;;;;10453449;28;20033;-72
2022/02/26 04:49:59;;;;;;;34.33;12.88;;;;;;;;;;10453414;28;20032;-75
2022/02/26 04:55:00;;;;;;;24.13;13.07;;;;;;;;;;10464027;28;20060;-71
2022/02/26 05:00:00;;;;;;;31.23;18.03;;;;;;;;;;10454132;28;20032;-73
2022/02/26 05:05:01;;;;;;;20.60;13.43;;;;;;;;;;10454145;28;20502;-75
2022/02/26 05:10:01;;;;;;;41.30;15.90;;;;;;;;;;10453235;28;20036;-73
2022/02/26 05:15:02;;;;;;;22.87;13.00;;;;;;;;;;10453566;28;20259;-76
2022/02/26 05:20:03;;;;;;;26.80;13.85;;;;;;;;;;10452066;28;20279;-73
2022/02/26 05:25:04;;;;;;;22.77;12.32;;;;;;;;;;10451988;28;20059;-76
2022/02/26 05:30:05;;;;;;;36.22;15.10;;;;;;;;;;10452747;28;20072;-73
2022/02/26 05:35:05;;;;;;;27.17;14.27;;;;;;;;;;10493768;28;20035;-72
2022/02/26 05:40:06;;;;;;;30.15;14.88;;;;;;;;;;10492850;28;20025;-76
2022/02/26 05:45:07;;;;;;;30.08;15.60;;;;;;;;;;10459887;28;20016;-73
2022/02/26 05:50:07;;;;;;;44.15;17.25;;;;;;;;;;10491566;28;20047;-73
2022/02/26 05:55:08;;;;;;;36.92;15.68;;;;;;;;;;10492853;28;20056;-73
2022/02/26 06:00:09;;;;;;;35.63;15.60;;;;;;;;;;10500640;28;20032;-75
2022/02/26 06:05:09;;;;;;;40.92;19.13;;;;;;;;;;10459749;28;20051;-75
2022/02/26 06:10:10;;;;;;;36.80;18.42;;;;;;;;;;10450240;28;20036;-76
2022/02/26 06:15:11;;;;;;;59.43;21.93;;;;;;;;;;10450165;28;20028;-71
2022/02/26 06:20:12;;;;;;;51.00;20.77;;;;;;;;;;10450031;28;20032;-71
2022/02/26 06:25:12;;;;;;;46.80;21.00;;;;;;;;;;10487518;28;20119;-76
2022/02/26 06:30:14;;;;;;;42.40;20.60;;;;;;;;;;10491027;28;20643;-74
2022/02/26 06:35:14;;;;;;;51.13;19.70;;;;;;;;;;10492878;28;20369;-80
2022/02/26 06:40:15;;;;;;;52.58;20.13;;;;;;;;;;10489582;28;20025;-73
2022/02/26 06:45:15;;;;;;;44.30;17.93;;;;;;;;;;10462043;28;20031;-72
2022/02/26 06:50:15;;;;;;;33.95;16.63;;;;;;;;;;10449723;28;20028;-72
2022/02/26 06:55:16;;;;;;;34.97;14.23;;;;;;;;;;10485516;28;20084;-73
2022/02/26 07:00:16;;;;;;;32.83;14.48;;;;;;;;;;10451781;28;20275;-73
2022/02/26 07:05:16;;;;;;;24.35;11.93;;;;;;;;;;10448534;28;20062;-76
2022/02/26 07:10:17;;;;;;;23.88;12.10;;;;;;;;;;10447144;28;20021;-78
2022/02/26 07:15:17;;;;;;;23.60;12.97;;;;;;;;;;10443214;28;20028;-75
2022/02/26 07:20:17;;;;;;;26.93;11.90;;;;;;;;;;10481050;28;20316;-74
2022/02/26 07:25:18;;;;;;;30.27;14.13;;;;;;;;;;10487019;28;20032;-72
2022/02/26 07:30:18;;;;;;;30.17;15.87;;;;;;;;;;10471006;28;20061;-73
2022/02/26 07:35:18;;;;;;;34.45;13.35;;;;;;;;;;10482011;28;20028;-72
2022/02/26 07:40:19;;;;;;;26.23;13.02;;;;;;;;;;10460423;28;20041;-73
2022/02/26 07:45:20;;;;;;;30.00;12.70;;;;;;;;;;10487562;28;20051;-78
2022/02/26 07:50:22;;;;;;;72.97;28.38;;;;;;;;;;10487043;28;20021;-81
2022/02/26 07:55:22;;;;;;;52.50;24.45;;;;;;;;;;10462079;28;20053;-73
2022/02/26 08:00:22;;;;;;;67.90;27.63;;;;;;;;;;10445610;28;20408;-73
2022/02/26 08:05:23;;;;;;;66.83;28.30;;;;;;;;;;10445700;28;20283;-73
2022/02/26 08:10:25;;;;;;;62.15;20.95;;;;;;;;;;10460939;28;20036;-79
2022/02/26 08:15:26;;;;;;;40.00;19.05;;;;;;;;;;10462189;28;20109;-73
2022/02/26 08:20:27;;;;;;;47.70;21.48;;;;;;;;;;10452182;28;20025;-73
2022/02/26 08:25:27;;;;;;;26.45;14.90;;;;;;;;;;10475558;28;20031;-79
2022/02/26 08:30:28;;;;;;;24.65;12.77;;;;;;;;;;10466458;28;20028;-74
2022/02/26 08:35:28;;;;;;;34.60;14.35;;;;;;;;;;10484217;28;20411;-77
2022/02/26 08:40:28;;;;;;;31.40;12.57;;;;;;;;;;10470641;28;20027;-78
2022/02/26 08:45:29;;;;;;;35.43;13.80;;;;;;;;;;10504010;28;20279;-79
2022/02/26 08:50:29;;;;;;;26.83;11.70;;;;;;;;;;10486739;28;20119;-79
2022/02/26 08:55:29;;;;;;;27.52;12.85;;;;;;;;;;10460665;28;20428;-80
2022/02/26 09:00:31;;;;;;;21.85;11.00;;;;;;;;;;10443627;28;20468;-76
2022/02/26 09:05:31;;;;;;;30.63;12.02;;;;;;;;;;10490178;22;20416;-77
2022/02/26 09:10:31;;;;;;;23.30;13.17;;;;;;;;;;10485932;28;20074;-77
2022/02/26 09:15:32;;;;;;;33.87;15.07;;;;;;;;;;10487300;28;20585;-82
2022/02/26 09:20:33;;;;;;;36.22;17.83;;;;;;;;;;10532002;28;20029;-79
2022/02/26 09:25:33;;;;;;;34.20;17.55;;;;;;;;;;10536305;28;20057;-76
2022/02/26 09:30:33;;;;;;;34.35;15.43;;;;;;;;;;10495215;28;20449;-76
2022/02/26 09:35:33;;;;;;;33.17;15.53;;;;;;;;;;10493240;28;20606;-78
2022/02/26 09:40:36;;;;;;;27.53;13.37;;;;;;;;;;10494697;28;20059;-80
2022/02/26 09:45:36;;;;;;;25.88;12.95;;;;;;;;;;10473025;28;20013;-74
2022/02/26 09:50:37;;;;;;;23.23;13.10;;;;;;;;;;10455966;28;20454;-80
2022/02/26 09:55:38;;;;;;;28.73;14.43;;;;;;;;;;10493398;28;20403;-82
2022/02/26 10:00:38;;;;;;;25.90;13.63;;;;;;;;;;10490808;28;20017;-80
2022/02/26 10:05:39;;;;;;;21.80;10.97;;;;;;;;;;10490704;28;20048;-75
2022/02/26 10:10:42;;;;;;;22.37;11.20;;;;;;;;;;10491941;28;20308;-78
2022/02/26 10:15:43;;;;;;;24.55;11.00;;;;;;;;;;10492278;28;20020;-75
2022/02/26 10:20:56;;;;;;;19.90;10.40;;;;;;;;;;10532443;28;20518;-74
2022/02/26 10:26:10;;;;;;;15.52;8.82;;;;;;;;;;10474959;28;20017;-75
2022/02/26 10:31:11;;;;;;;20.00;9.35;;;;;;;;;;10459870;28;20028;-75
2022/02/26 10:36:12;;;;;;;19.27;8.90;;;;;;;;;;10489151;28;20024;-75
2022/02/26 10:41:13;;;;;;;19.87;9.53;;;;;;;;;;10490526;28;20024;-71
2022/02/26 10:46:20;;;;;;;17.40;9.38;;;;;;;;;;10488870;28;20472;-72
2022/02/26 10:51:22;;;;;;;19.00;9.60;;;;;;;;;;10489410;28;20095;-72
2022/02/26 10:56:30;;;;;;;18.02;8.05;;;;;;;;;;10487512;28;20047;-72
2022/02/26 11:01:30;;;;;;;12.90;7.95;;;;;;;;;;10487809;28;20068;-71
2022/02/26 11:06:32;;;;;;;17.95;8.25;;;;;;;;;;10459662;28;20132;-76
2022/02/26 11:11:32;;;;;;;15.48;7.70;;;;;;;;;;10463133;28;20116;-74
2022/02/26 11:16:33;;;;;;;15.70;7.40;;;;;;;;;;10481540;28;20149;-74
2022/02/26 11:21:34;;;;;;;16.15;7.20;;;;;;;;;;10487390;28;20400;-73
2022/02/26 11:26:35;;;;;;;13.10;7.67;;;;;;;;;;10462079;28;20029;-75
2022/02/26 11:31:39;;;;;;;8.43;5.43;;;;;;;;;;10430419;28;20027;-74
2022/02/26 11:36:46;;;;;;;11.52;6.18;;;;;;;;;;10445999;28;20032;-75
2022/02/26 11:41:46;;;;;;;10.88;5.00;;;;;;;;;;10445420;28;20028;-75
2022/02/26 11:46:46;;;;;;;10.40;6.07;;;;;;;;;;10444561;28;20033;-77
2022/02/26 11:51:47;;;;;;;15.13;7.45;;;;;;;;;;10453068;28;20115;-78
2022/02/26 11:56:52;;;;;;;9.35;6.55;;;;;;;;;;10482138;28;20023;-77
2022/02/26 12:02:03;;;;;;;11.88;7.10;;;;;;;;;;10470043;28;20028;-75
2022/02/26 12:07:06;;;;;;;13.43;7.72;;;;;;;;;;10478194;28;20504;-76
2022/02/26 12:12:27;;;;;;;13.10;7.60;;;;;;;;;;10460470;28;20054;-73
2022/02/26 12:17:27;;;;;;;16.50;8.15;;;;;;;;;;10493127;28;20376;-74
2022/02/26 12:22:31;;;;;;;14.70;7.27;;;;;;;;;;10486182;28;20036;-73
2022/02/26 12:27:32;;;;;;;11.27;7.07;;;;;;;;;;10469522;28;20025;-74
2022/02/26 12:32:47;;;;;;;12.82;7.53;;;;;;;;;;10443841;28;20032;-77
2022/02/26 12:37:47;;;;;;;17.17;7.95;;;;;;;;;;10443915;28;20021;-75
2022/02/26 12:42:48;;;;;;;14.53;6.23;;;;;;;;;;10459993;28;20037;-74
2022/02/26 12:47:48;;;;;;;15.05;7.05;;;;;;;;;;10445047;28;20475;-75
2022/02/26 12:52:49;;;;;;;25.37;8.17;;;;;;;;;;10443572;28;20032;-74
2022/02/26 12:57:49;;;;;;;11.80;7.07;;;;;;;;;;10446453;28;20411;-76
2022/02/26 13:02:54;;;;;;;13.80;7.88;;;;;;;;;;10472059;28;20058;-74
2022/02/26 13:08:14;;;;;;;16.98;7.70;;;;;;;;;;10493720;28;20132;-75
2022/02/26 13:13:16;;;;;;;12.68;7.93;;;;;;;;;;10491866;28;20044;-73
2022/02/26 13:18:17;;;;;;;16.42;7.95;;;;;;;;;;10482331;28;20577;-78
2022/02/26 13:23:18;;;;;;;14.07;7.15;;;;;;;;;;10486748;28;20032;-75
2022/02/26 13:28:21;;;;;;;15.55;8.85;;;;;;;;;;10469139;28;20103;-76
2022/02/26 13:33:22;;;;;;;13.05;7.07;;;;;;;;;;10453349;28;20062;-72
2022/02/26 13:38:24;;;;;;;24.33;6.95;;;;;;;;;;10468245;28;20082;-73
2022/02/26 13:43:25;;;;;;;15.75;7.03;;;;;;;;;;10449876;28;20040;-74
2022/02/26 13:48:26;;;;;;;14.23;7.10;;;;;;;;;;10473897;28;20024;-76
2022/02/26 13:53:26;;;;;;;16.17;7.77;;;;;;;;;;10489437;28;20395;-77
2022/02/26 13:58:28;;;;;;;12.40;7.27;;;;;;;;;;10490585;28;20599;-76
2022/02/26 14:03:28;;;;;;;15.35;8.15;;;;;;;;;;10489376;28;20313;-76
2022/02/26 14:08:29;;;;;;;14.43;7.47;;;;;;;;;;10490103;28;20138;-74
2022/02/26 14:13:33;;;;;;;18.52;8.18;;;;;;;;;;10491032;28;20032;-74
2022/02/26 14:18:37;;;;;;;15.57;8.02;;;;;;;;;;10514726;28;20118;-78
2022/02/26 14:23:39;;;;;;;12.20;8.48;;;;;;;;;;10450808;28;20033;-74
2022/02/26 14:28:40;;;;;;;15.52;8.63;;;;;;;;;;10448732;28;20111;-73
2022/02/26 14:33:41;;;;;;;23.17;9.73;;;;;;;;;;10448041;28;20437;-76
2022/02/26 14:38:41;;;;;;;15.68;8.65;;;;;;;;;;10478927;28;20021;-74
2022/02/26 14:43:41;;;;;;;13.47;8.07;;;;;;;;;;10490450;28;20032;-77
2022/02/26 14:48:41;;;;;;;14.35;8.77;;;;;;;;;;10487729;28;20023;-74
2022/02/26 14:53:42;;;;;;;16.40;9.70;;;;;;;;;;10489752;28;20029;-79
2022/02/26 14:58:42;;;;;;;18.73;9.50;;;;;;;;;;10487963;28;20514;-74
2022/02/26 15:03:42;;;;;;;15.43;10.20;;;;;;;;;;10489832;28;20393;-77
2022/02/26 15:08:43;;;;;;;23.03;11.93;;;;;;;;;;10488472;28;20064;-73
2022/02/26 15:13:43;;;;;;;23.80;12.40;;;;;;;;;;10488388;28;20058;-75
2022/02/26 15:18:43;;;;;;;24.87;13.37;;;;;;;;;;10514665;28;20095;-75
2022/02/26 15:23:45;;;;;;;26.08;14.60;;;;;;;;;;10446633;28;20271;-76
2022/02/26 15:28:45;;;;;;;25.23;14.20;;;;;;;;;;10448598;28;20032;-77
2022/02/26 15:33:46;;;;;;;21.77;13.10;;;;;;;;;;10486368;28;20039;-74
2022/02/26 15:38:46;;;;;;;26.03;13.40;;;;;;;;;;10488285;28;20402;-77
2022/02/26 15:43:46;;;;;;;22.13;13.00;;;;;;;;;;10487098;28;20107;-74
2022/02/26 15:48:46;;;;;;;25.88;14.45;;;;;;;;;;10486373;28;20181;-73
2022/02/26 15:53:47;;;;;;;23.33;13.77;;;;;;;;;;10449365;28;20025;-73
2022/02/26 15:58:47;;;;;;;27.33;14.65;;;;;;;;;;10444431;28;20385;-74
2022/02/26 16:03:48;;;;;;;22.63;13.33;;;;;;;;;;10444325;28;20036;-73
2022/02/26 16:08:48;;;;;;;29.73;16.40;;;;;;;;;;10446045;28;20749;-76
2022/02/26 16:13:48;;;;;;;26.13;14.30;;;;;;;;;;10469699;28;20039;-75
2022/02/26 16:18:48;;;;;;;30.00;15.80;;;;;;;;;;10460950;28;20028;-74
2022/02/26 16:23:51;;;;;;;29.67;16.27;;;;;;;;;;10454083;28;20029;-75
2022/02/26 16:28:52;;;;;;;25.90;11.93;;;;;;;;;;10486781;28;20034;-75
2022/02/26 16:33:52;;;;;;;23.98;13.07;;;;;;;;;;10488137;28;20021;-74
2022/02/26 16:38:53;;;;;;;26.97;14.20;;;;;;;;;;10486822;28;20027;-75
2022/02/26 16:43:53;;;;;;;29.73;12.07;;;;;;;;;;10485473;28;20407;-73
2022/02/26 16:48:53;;;;;;;24.67;12.57;;;;;;;;;;10468006;28;20035;-73
2022/02/26 16:53:53;;;;;;;29.02;12.90;;;;;;;;;;10477581;28;20054;-74
2022/02/26 16:58:54;;;;;;;27.07;14.53;;;;;;;;;;10483888;28;20021;-74
2022/02/26 17:03:54;;;;;;;25.73;12.87;;;;;;;;;;10485329;28;20020;-74
2022/02/26 17:08:54;;;;;;;40.60;17.27;;;;;;;;;;10484047;28;20052;-77
2022/02/26 17:13:55;;;;;;;36.50;16.20;;;;;;;;;;10495960;28;20032;-74
2022/02/26 17:18:55;;;;;;;36.50;15.53;;;;;;;;;;10511870;28;20119;-73
2022/02/26 17:23:55;;;;;;;33.15;12.27;;;;;;;;;;10442930;28;20032;-78
2022/02/26 17:28:57;;;;;;;46.70;18.77;;;;;;;;;;10443973;28;20025;-74
2022/02/26 17:33:58;;;;;;;22.83;10.63;;;;;;;;;;10444620;28;20354;-74
2022/02/26 17:38:58;;;;;;;24.77;11.38;;;;;;;;;;10466431;28;20024;-72
2022/02/26 17:43:58;;;;;;;20.92;11.07;;;;;;;;;;10485965;28;20031;-74
2022/02/26 17:48:59;;;;;;;30.67;11.30;;;;;;;;;;10491309;28;20032;-78
2022/02/26 17:53:59;;;;;;;26.57;11.47;;;;;;;;;;10490194;28;20032;-77
2022/02/26 17:59:00;;;;;;;24.17;10.93;;;;;;;;;;10492288;28;20028;-74
2022/02/26 18:04:00;;;;;;;26.50;11.70;;;;;;;;;;10479164;28;20125;-73
2022/02/26 18:09:01;;;;;;;24.60;10.32;;;;;;;;;;10490929;28;20048;-73
2022/02/26 18:14:01;;;;;;;26.08;11.07;;;;;;;;;;10490113;28;20051;-76
2022/02/26 18:19:02;;;;;;;20.73;10.35;;;;;;;;;;10520318;28;20027;-79
2022/02/26 18:24:02;;;;;;;29.45;10.45;;;;;;;;;;10313244;23;20519;-78
2022/02/26 18:29:03;;;;;;;26.10;10.07;;;;;;;;;;10237777;29;20024;-76
2022/02/26 18:34:04;;;;;;;19.25;9.63;;;;;;;;;;10201455;29;20296;-78
2022/02/26 18:39:04;;;;;;;22.17;10.57;;;;;;;;;;10232310;29;20034;-76
2022/02/26 18:44:05;;;;;;;21.73;11.60;;;;;;;;;;10239548;29;20035;-73
2022/02/26 18:49:06;;;;;;;25.10;12.25;;;;;;;;;;10240132;29;20380;-73
2022/02/26 18:54:06;;;;;;;22.15;11.15;;;;;;;;;;10264706;28;20034;-74
2022/02/26 18:59:07;;;;;;;25.15;12.55;;;;;;;;;;10265452;28;20033;-74
2022/02/26 19:04:07;;;;;;;21.15;10.50;;;;;;;;;;10241491;28;20034;-74
2022/02/26 19:09:08;;;;;;;20.73;11.75;;;;;;;;;;10238016;29;20509;-73
2022/02/26 19:14:08;;;;;;;32.78;16.98;;;;;;;;;;10237824;29;20309;-73
2022/02/26 19:19:08;;;;;;;22.27;9.95;;;;;;;;;;10267546;28;20033;-74
2022/02/26 19:24:09;;;;;;;31.25;11.25;;;;;;;;;;10242642;28;20055;-77
2022/02/26 19:29:10;;;;;;;24.38;10.65;;;;;;;;;;10198244;29;20035;-72
2022/02/26 19:34:10;;;;;;;22.38;11.38;;;;;;;;;;10200650;29;20038;-73
2022/02/26 19:39:10;;;;;;;25.80;12.05;;;;;;;;;;10237499;29;20479;-72
2022/02/26 19:44:10;;;;;;;22.27;11.23;;;;;;;;;;10236996;29;20391;-77
2022/02/26 19:49:11;;;;;;;26.33;12.77;;;;;;;;;;10220599;28;20358;-73
2022/02/26 19:54:11;;;;;;;31.00;12.52;;;;;;;;;;10247960;28;20033;-78
2022/02/26 19:59:11;;;;;;;20.20;10.95;;;;;;;;;;10272289;28;20093;-78
2022/02/26 20:04:14;;;;;;;21.77;12.18;;;;;;;;;;10236450;28;20487;-73
2022/02/26 20:09:17;;;;;;;19.45;10.60;;;;;;;;;;10236408;28;20057;-74
2022/02/26 20:14:18;;;;;;;23.42;11.52;;;;;;;;;;10217235;29;20047;-76
2022/02/26 20:19:23;;;;;;;20.00;10.80;;;;;;;;;;10257158;28;20023;-72
2022/02/26 20:24:29;;;;;;;25.08;11.52;;;;;;;;;;10228132;28;20551;-72
2022/02/26 20:29:33;;;;;;;24.10;11.95;;;;;;;;;;10288016;28;20028;-72
2022/02/26 20:34:33;;;;;;;22.00;11.32;;;;;;;;;;10218740;28;20024;-77
2022/02/26 20:39:33;;;;;;;20.90;11.00;;;;;;;;;;10196540;29;20019;-73
2022/02/26 20:44:34;;;;;;;20.55;9.90;;;;;;;;;;10196946;29;20027;-74
2022/02/26 20:49:34;;;;;;;22.00;12.05;;;;;;;;;;10211704;29;20023;-73
2022/02/26 20:54:35;;;;;;;32.00;15.55;;;;;;;;;;10252461;28;20026;-74
2022/02/26 20:59:35;;;;;;;27.67;14.10;;;;;;;;;;10261369;28;20099;-73
2022/02/26 21:04:35;;;;;;;25.67;13.17;;;;;;;;;;10196249;29;20089;-77
2022/02/26 21:09:35;;;;;;;26.27;13.93;;;;;;;;;;10196917;28;20032;-77
2022/02/26 21:14:36;;;;;;;24.33;12.73;;;;;;;;;;10411229;28;20028;-75
2022/02/26 21:19:36;;;;;;;20.25;12.52;;;;;;;;;;10276293;28;20049;-72
2022/02/26 21:24:36;;;;;;;25.87;12.80;;;;;;;;;;10223259;29;20420;-73
2022/02/26 21:29:37;;;;;;;24.35;13.05;;;;;;;;;;10202050;29;20479;-73
2022/02/26 21:34:37;;;;;;;27.95;14.43;;;;;;;;;;10203462;29;20115;-72
2022/02/26 21:39:37;;;;;;;25.33;14.23;;;;;;;;;;10186302;29;20028;-73
2022/02/26 21:44:38;;;;;;;23.30;11.95;;;;;;;;;;10201509;28;20034;-72
2022/02/26 21:49:38;;;;;;;21.70;10.33;;;;;;;;;;10201938;29;20160;-74
2022/02/26 21:54:38;;;;;;;27.17;12.48;;;;;;;;;;10321537;28;20275;-72
2022/02/26 21:59:39;;;;;;;17.83;8.75;;;;;;;;;;10448675;28;20037;-73
2022/02/26 22:04:40;;;;;;;21.75;11.75;;;;;;;;;;10365490;28;20035;-76
2022/02/26 22:09:41;;;;;;;20.85;11.52;;;;;;;;;;10201045;29;20388;-72
2022/02/26 22:14:41;;;;;;;23.02;12.35;;;;;;;;;;10202701;29;20024;-73
2022/02/26 22:19:43;;;;;;;23.53;12.47;;;;;;;;;;10266796;28;20038;-77
2022/02/26 22:24:43;;;;;;;22.52;10.65;;;;;;;;;;10281299;28;20051;-73
2022/02/26 22:29:43;;;;;;;25.57;11.93;;;;;;;;;;10280442;28;20026;-73
2022/02/26 22:34:44;;;;;;;30.70;11.70;;;;;;;;;;10282076;28;20030;-74
2022/02/26 22:39:45;;;;;;;27.63;12.23;;;;;;;;;;10280817;28;20055;-73
2022/02/26 22:44:45;;;;;;;30.52;10.57;;;;;;;;;;10281806;28;20509;-73
2022/02/26 22:49:46;;;;;;;26.80;11.47;;;;;;;;;;10280883;28;20046;-76
2022/02/26 22:54:47;;;;;;;19.88;10.30;;;;;;;;;;10266407;28;20118;-74
2022/02/26 22:59:47;;;;;;;28.35;12.07;;;;;;;;;;10200706;29;20539;-74
2022/02/26 23:04:47;;;;;;;22.38;11.93;;;;;;;;;;10200596;29;20027;-74
2022/02/26 23:09:48;;;;;;;28.35;12.40;;;;;;;;;;10200642;29;20069;-74
2022/02/26 23:14:50;;;;;;;28.23;12.07;;;;;;;;;;10200113;29;20040;-73
2022/02/26 23:19:50;;;;;;;27.13;12.20;;;;;;;;;;10184154;28;20118;-74
2022/02/26 23:24:50;;;;;;;24.48;12.65;;;;;;;;;;10199834;28;20066;-73
2022/02/26 23:29:51;;;;;;;27.35;12.88;;;;;;;;;;10199712;29;20036;-74
2022/02/26 23:34:51;;;;;;;26.30;12.73;;;;;;;;;;10199260;28;20388;-74
2022/02/26 23:39:51;;;;;;;26.38;12.55;;;;;;;;;;10199099;28;20020;-73
2022/02/26 23:44:52;;;;;;;27.58;13.60;;;;;;;;;;10198788;29;20028;-74
2022/02/26 23:49:52;;;;;;;28.83;12.52;;;;;;;;;;10199238;29;20074;-74
2022/02/26 23:54:52;;;;;;;29.48;14.13;;;;;;;;;;10199093;28;20024;-74
2022/02/26 23:59:53;;;;;;;26.17;13.68;;;;;;;;;;10183154;28;20020;-74
